createdAt,value
2019-05-23T00:00:46.219Z,12.80
2019-05-23T00:06:27.931Z,12.80
2019-05-23T00:11:57.391Z,12.70
2019-05-23T00:17:20.815Z,12.70
2019-05-23T00:22:27.410Z,12.70
2019-05-23T00:27:34.183Z,12.70
2019-05-23T00:32:48.186Z,12.60
2019-05-23T00:37:53.208Z,12.50
2019-05-23T00:42:58.256Z,12.50
2019-05-23T00:48:05.538Z,12.50
2019-05-23T00:53:10.811Z,12.50
2019-05-23T00:58:16.943Z,12.50
2019-05-23T01:03:22.563Z,12.40
2019-05-23T01:08:28.032Z,12.40
2019-05-23T01:13:33.376Z,12.50
2019-05-23T01:18:39.248Z,12.40
2019-05-23T01:23:48.727Z,12.40
2019-05-23T01:28:54.947Z,12.30
2019-05-23T01:34:00.081Z,12.30
2019-05-23T01:39:10.211Z,12.20
2019-05-23T01:44:16.401Z,12.20
2019-05-23T01:49:21.728Z,12.20
2019-05-23T01:54:27.353Z,12.20
2019-05-23T01:59:33.455Z,12.20
2019-05-23T02:04:38.655Z,12.20
2019-05-23T02:09:43.837Z,12.10
2019-05-23T02:14:49.915Z,12.10
2019-05-23T02:19:55.499Z,12.20
2019-05-23T02:25:01.836Z,12.10
2019-05-23T02:30:30.147Z,12.10
2019-05-23T02:35:18.622Z,12.10
2019-05-23T02:40:37.318Z,12.00
2019-05-23T02:45:45.444Z,12.10
2019-05-23T02:50:56.427Z,12.00
2019-05-23T02:56:05.760Z,12.00
2019-05-23T03:01:22.712Z,12.00
2019-05-23T03:06:28.335Z,12.00
2019-05-23T03:11:36.722Z,12.00
2019-05-23T03:16:44.156Z,12.00
2019-05-23T03:21:52.542Z,12.00
2019-05-23T03:27:05.131Z,11.90
2019-05-23T03:32:14.325Z,11.90
2019-05-23T03:37:20.231Z,11.90
2019-05-23T03:42:26.529Z,11.90
2019-05-23T03:47:33.231Z,11.80
2019-05-23T03:52:38.420Z,11.80
2019-05-23T03:57:43.651Z,11.80
2019-05-23T04:02:50.436Z,11.80
2019-05-23T04:07:56.828Z,11.80
2019-05-23T04:13:01.959Z,11.80
2019-05-23T04:18:07.585Z,11.80
2019-05-23T04:23:13.606Z,11.80
2019-05-23T04:28:19.603Z,11.80
2019-05-23T04:33:24.560Z,11.80
2019-05-23T04:38:29.989Z,11.90
2019-05-23T04:43:34.932Z,11.90
2019-05-23T04:48:41.066Z,12.00
2019-05-23T04:53:46.020Z,12.00
2019-05-23T04:58:52.417Z,12.00
2019-05-23T05:03:59.732Z,12.10
2019-05-23T05:09:08.668Z,12.10
2019-05-23T05:14:13.856Z,12.00
2019-05-23T05:19:19.615Z,12.00
2019-05-23T05:24:33.351Z,12.10
2019-05-23T05:29:42.891Z,12.10
2019-05-23T05:34:47.957Z,12.10
2019-05-23T05:39:53.000Z,12.20
2019-05-23T05:44:58.605Z,12.20
2019-05-23T05:50:06.897Z,12.20
2019-05-23T05:55:12.612Z,12.20
2019-05-23T06:00:28.926Z,12.30
2019-05-23T06:05:39.230Z,12.20
2019-05-23T06:10:45.210Z,12.20
2019-05-23T06:15:51.035Z,12.20
2019-05-23T06:20:56.415Z,12.20
2019-05-23T06:26:01.702Z,12.20
2019-05-23T06:31:07.766Z,12.20
2019-05-23T06:36:13.348Z,12.20
2019-05-23T06:41:20.151Z,12.30
2019-05-23T06:46:25.648Z,12.30
2019-05-23T06:51:31.546Z,12.40
2019-05-23T06:56:36.848Z,12.40
2019-05-23T07:01:41.883Z,12.40
2019-05-23T07:12:25.982Z,12.40
2019-05-23T07:17:31.655Z,12.50
2019-05-23T07:22:37.051Z,12.60
2019-05-23T07:27:42.293Z,12.60
2019-05-23T07:32:47.411Z,12.60
2019-05-23T07:37:52.461Z,12.60
2019-05-23T07:42:57.723Z,12.60
2019-05-23T07:48:04.695Z,12.70
2019-05-23T07:53:11.454Z,12.80
2019-05-23T07:58:18.219Z,12.90
2019-05-23T08:03:28.655Z,12.80
2019-05-23T08:08:33.799Z,12.80
2019-05-23T08:13:39.234Z,13.00
2019-05-23T08:18:44.386Z,13.10
2019-05-23T08:23:49.435Z,13.20
2019-05-23T08:29:22.341Z,13.30
2019-05-23T08:34:01.224Z,13.20
2019-05-23T08:39:08.690Z,13.10
2019-05-23T08:44:14.042Z,13.10
2019-05-23T08:49:19.334Z,13.40
2019-05-23T08:54:24.386Z,13.50
2019-05-23T08:59:29.996Z,13.60
2019-05-23T09:04:35.906Z,13.70
2019-05-23T09:09:41.522Z,13.80
2019-05-23T09:14:47.015Z,14.20
2019-05-23T09:19:52.068Z,14.50
2019-05-23T09:24:57.219Z,14.90
2019-05-23T09:30:04.597Z,15.00
2019-05-23T09:35:20.200Z,15.20
2019-05-23T09:40:17.404Z,15.20
2019-05-23T09:45:22.967Z,15.30
2019-05-23T09:50:28.667Z,15.30
2019-05-23T09:55:34.691Z,15.50
2019-05-23T10:00:41.736Z,15.50
2019-05-23T10:05:47.183Z,15.80
2019-05-23T10:10:52.281Z,15.80
2019-05-23T10:15:58.960Z,15.80
2019-05-23T10:21:04.215Z,15.90
2019-05-23T10:26:10.098Z,15.80
2019-05-23T10:31:15.458Z,15.80
2019-05-23T10:36:20.671Z,15.70
2019-05-23T10:41:25.855Z,15.80
2019-05-23T10:46:31.846Z,15.90
2019-05-23T10:51:36.951Z,16.00
2019-05-23T10:56:41.986Z,16.00
2019-05-23T11:01:47.140Z,16.00
2019-05-23T11:06:52.306Z,16.10
2019-05-23T11:11:57.596Z,16.20
2019-05-23T11:17:03.846Z,16.30
2019-05-23T11:22:09.635Z,16.40
2019-05-23T11:27:16.888Z,16.40
2019-05-23T11:32:22.702Z,16.60
2019-05-23T11:37:27.967Z,16.80
2019-05-23T11:42:33.279Z,17.00
2019-05-23T11:47:38.381Z,17.00
2019-05-23T11:52:43.665Z,17.20
2019-05-23T11:57:48.792Z,17.10
2019-05-23T12:02:54.525Z,17.10
2019-05-23T12:07:59.575Z,17.00
2019-05-23T12:13:04.730Z,17.40
2019-05-23T12:18:09.996Z,17.80
2019-05-23T12:23:15.172Z,18.10
2019-05-23T12:28:20.265Z,18.00
2019-05-23T12:33:25.436Z,18.10
2019-05-23T12:38:30.456Z,18.00
2019-05-23T12:43:35.589Z,17.70
2019-05-23T12:48:45.299Z,17.50
2019-05-23T12:53:51.520Z,17.80
2019-05-23T12:58:57.408Z,17.70
2019-05-23T13:04:02.600Z,17.30
2019-05-23T13:09:09.685Z,17.20
2019-05-23T13:14:15.060Z,17.60
2019-05-23T13:19:20.422Z,17.70
2019-05-23T13:24:26.123Z,17.50
2019-05-23T13:29:31.636Z,17.80
2019-05-23T13:34:36.899Z,18.00
2019-05-23T13:39:42.066Z,17.80
2019-05-23T13:44:47.783Z,17.80
2019-05-23T13:49:52.989Z,17.90
2019-05-23T13:54:59.800Z,18.00
2019-05-23T14:00:08.495Z,18.00
2019-05-23T14:05:18.684Z,17.80
2019-05-23T14:10:21.481Z,17.60
2019-05-23T14:15:28.130Z,17.90
2019-05-23T14:20:33.572Z,18.10
2019-05-23T14:25:39.334Z,18.10
2019-05-23T14:30:53.152Z,18.00
2019-05-23T14:36:02.809Z,18.00
2019-05-23T14:41:09.087Z,17.90
2019-05-23T14:46:16.065Z,17.80
2019-05-23T14:51:40.589Z,18.00
2019-05-23T14:56:46.268Z,18.00
2019-05-23T15:01:51.579Z,17.80
2019-05-23T15:06:56.552Z,17.80
2019-05-23T15:12:02.059Z,17.90
2019-05-23T15:17:07.644Z,18.10
2019-05-23T15:22:12.824Z,18.80
2019-05-23T15:27:18.007Z,18.40
2019-05-23T15:32:23.467Z,17.70
2019-05-23T15:37:28.596Z,17.50
2019-05-23T15:42:33.743Z,17.50
2019-05-23T15:47:38.956Z,17.10
2019-05-23T15:52:48.355Z,17.10
2019-05-23T15:58:05.920Z,17.20
2019-05-23T16:03:31.602Z,17.00
2019-05-23T16:08:38.587Z,16.90
2019-05-23T16:13:43.685Z,16.80
2019-05-23T16:18:49.396Z,16.70
2019-05-23T16:23:54.380Z,16.60
2019-05-23T16:28:59.405Z,16.50
2019-05-23T16:34:04.683Z,16.60
2019-05-23T16:39:09.796Z,16.50
2019-05-23T16:44:14.948Z,16.30
2019-05-23T16:49:19.984Z,16.20
2019-05-23T16:54:26.749Z,16.10
2019-05-23T16:59:33.427Z,16.00
2019-05-23T17:04:48.996Z,15.90
2019-05-23T17:10:07.364Z,15.90
2019-05-23T17:15:07.060Z,15.80
2019-05-23T17:20:20.569Z,15.70
2019-05-23T17:25:36.343Z,15.60
2019-05-23T17:30:54.785Z,15.60
2019-05-23T17:35:59.945Z,15.50
2019-05-23T17:41:05.342Z,15.50
2019-05-23T17:46:10.357Z,15.50
2019-05-23T17:51:16.111Z,15.40
2019-05-23T17:56:21.334Z,15.20
2019-05-23T18:01:26.676Z,15.10
2019-05-23T18:06:31.782Z,15.00
2019-05-23T18:11:37.457Z,14.90
2019-05-23T18:16:42.953Z,14.80
2019-05-23T18:21:48.096Z,14.70
2019-05-23T18:26:53.328Z,14.70
2019-05-23T18:31:59.115Z,14.70
2019-05-23T18:37:05.205Z,14.60
2019-05-23T18:42:10.392Z,14.60
2019-05-23T18:47:17.189Z,14.50
2019-05-23T18:52:22.424Z,14.50
2019-05-23T18:57:27.724Z,14.40
2019-05-23T19:02:33.567Z,14.30
2019-05-23T19:07:40.594Z,14.20
2019-05-23T19:12:45.711Z,14.10
2019-05-23T19:17:51.024Z,14.00
2019-05-23T19:22:56.145Z,13.90
2019-05-23T19:28:01.188Z,13.80
2019-05-23T19:33:08.219Z,13.70
2019-05-23T19:38:13.703Z,13.60
2019-05-23T19:43:19.492Z,13.60
2019-05-23T19:48:25.551Z,13.50
2019-05-23T19:53:31.066Z,13.50
2019-05-23T19:58:36.236Z,13.40
2019-05-23T20:03:43.087Z,13.40
2019-05-23T20:08:49.128Z,13.30
2019-05-23T20:13:54.151Z,13.20
2019-05-23T20:18:59.623Z,13.20
2019-05-23T20:24:04.840Z,13.10
2019-05-23T20:29:09.808Z,13.00
2019-05-23T20:34:14.809Z,12.80
2019-05-23T20:39:21.072Z,12.80
2019-05-23T20:44:26.157Z,12.70
2019-05-23T20:49:31.182Z,12.60
2019-05-23T20:54:36.130Z,12.50
2019-05-23T20:59:41.268Z,12.30
2019-05-23T21:04:46.382Z,12.20
2019-05-23T21:09:51.576Z,12.10
2019-05-23T21:14:57.663Z,12.00
2019-05-23T21:20:02.784Z,11.90
2019-05-23T21:25:09.412Z,11.80
2019-05-23T21:30:14.608Z,11.60
2019-05-23T21:35:19.806Z,11.60
2019-05-23T21:40:36.635Z,11.50
2019-05-23T21:45:41.991Z,11.40
2019-05-23T21:50:47.043Z,11.40
2019-05-23T21:55:52.343Z,11.40
2019-05-23T22:01:07.956Z,11.30
2019-05-23T22:06:14.907Z,11.30
2019-05-23T22:11:21.090Z,11.20
2019-05-23T22:16:26.371Z,11.20
2019-05-23T22:21:31.455Z,11.20
2019-05-23T22:26:36.657Z,11.20
2019-05-23T22:31:41.871Z,11.20
2019-05-23T22:36:47.047Z,11.20
2019-05-23T22:46:56.578Z,11.10
2019-05-23T22:52:01.684Z,11.10
2019-05-23T22:57:06.978Z,11.00
2019-05-23T23:02:14.811Z,10.90
2019-05-23T23:07:20.172Z,10.90
2019-05-23T23:12:25.292Z,10.80
2019-05-23T23:17:31.643Z,10.80
2019-05-23T23:22:37.427Z,10.70
2019-05-23T23:27:42.391Z,10.60
2019-05-23T23:32:47.439Z,10.50
2019-05-23T23:37:52.486Z,10.40
2019-05-23T23:42:57.519Z,10.20
2019-05-23T23:48:20.712Z,10.10
2019-05-23T23:53:44.046Z,10.00
2019-05-23T23:58:48.361Z,9.90
